createdAt,value
2023-05-02T00:00:53.729Z,8.95
2023-05-02T00:03:26.864Z,8.94
2023-05-02T00:05:59.440Z,8.92
2023-05-02T00:08:31.746Z,8.89
2023-05-02T00:11:04.059Z,8.85
2023-05-02T00:13:39.305Z,8.80
2023-05-02T00:16:12.132Z,8.75
2023-05-02T00:18:44.316Z,8.72
2023-05-02T00:21:16.406Z,8.67
2023-05-02T00:23:52.182Z,8.60
2023-05-02T00:26:24.432Z,8.56
2023-05-02T00:29:01.377Z,8.52
2023-05-02T00:31:33.657Z,8.51
2023-05-02T00:34:06.190Z,8.49
2023-05-02T00:36:38.268Z,8.47
2023-05-02T00:39:10.973Z,8.43
2023-05-02T00:41:43.165Z,8.42
2023-05-02T00:44:15.366Z,8.40
2023-05-02T00:46:47.638Z,8.39
2023-05-02T00:49:20.048Z,8.35
2023-05-02T00:51:52.258Z,8.30
2023-05-02T00:54:24.438Z,8.27
2023-05-02T00:56:56.779Z,8.25
2023-05-02T00:59:29.643Z,8.23
2023-05-02T01:02:13.010Z,8.23
2023-05-02T01:04:52.004Z,8.23
2023-05-02T01:07:37.795Z,8.24
2023-05-02T01:10:20.948Z,8.21
2023-05-02T01:13:00.505Z,8.20
2023-05-02T01:15:34.176Z,8.20
2023-05-02T01:18:10.360Z,8.18
2023-05-02T01:20:46.131Z,8.16
2023-05-02T01:23:23.725Z,8.12
2023-05-02T01:26:09.209Z,8.08
2023-05-02T01:28:53.424Z,8.12
2023-05-02T01:31:30.266Z,8.18
2023-05-02T01:34:03.824Z,8.23
2023-05-02T01:36:38.168Z,8.27
2023-05-02T01:39:12.063Z,8.34
2023-05-02T01:41:44.881Z,8.42
2023-05-02T01:44:19.389Z,8.49
2023-05-02T01:46:54.609Z,8.58
2023-05-02T01:49:28.480Z,8.65
2023-05-02T01:52:06.718Z,8.68
2023-05-02T01:54:41.132Z,8.77
2023-05-02T01:57:14.325Z,8.84
2023-05-02T01:59:48.126Z,8.87
2023-05-02T02:02:20.963Z,8.96
2023-05-02T02:04:54.550Z,9.05
2023-05-02T02:07:26.984Z,9.11
2023-05-02T02:10:00.020Z,9.14
2023-05-02T02:12:38.150Z,9.13
2023-05-02T02:15:18.332Z,9.10
2023-05-02T02:17:56.538Z,9.06
2023-05-02T02:20:32.009Z,9.00
2023-05-02T02:23:08.522Z,8.98
2023-05-02T02:25:41.679Z,8.98
2023-05-02T02:28:16.833Z,9.03
2023-05-02T02:30:49.297Z,9.09
2023-05-02T02:33:21.909Z,9.12
2023-05-02T02:36:06.390Z,9.14
2023-05-02T02:38:45.269Z,9.20
2023-05-02T02:41:24.695Z,9.27
2023-05-02T02:44:13.484Z,9.36
2023-05-02T02:46:52.448Z,9.42
2023-05-02T02:49:33.698Z,9.46
2023-05-02T02:52:12.321Z,9.53
2023-05-02T02:54:51.602Z,9.64
2023-05-02T02:57:33.933Z,9.74
2023-05-02T03:00:21.765Z,9.84
2023-05-02T03:02:56.034Z,9.95
2023-05-02T03:05:28.719Z,10.02
2023-05-02T03:08:02.047Z,10.10
2023-05-02T03:10:35.611Z,10.18
2023-05-02T03:13:08.288Z,10.25
2023-05-02T03:16:08.370Z,10.31
2023-05-02T03:18:41.544Z,10.36
2023-05-02T03:21:13.924Z,10.41
2023-05-02T03:23:46.382Z,10.45
2023-05-02T03:26:19.223Z,10.46
2023-05-02T03:28:52.232Z,10.49
2023-05-02T03:31:26.793Z,10.55
2023-05-02T03:33:59.863Z,10.59
2023-05-02T03:36:32.346Z,10.65
2023-05-02T03:39:04.568Z,10.72
2023-05-02T03:41:36.812Z,10.79
2023-05-02T03:44:10.729Z,10.84
2023-05-02T03:46:43.314Z,10.89
2023-05-02T03:49:16.012Z,10.92
2023-05-02T03:51:48.854Z,10.96
2023-05-02T03:54:26.274Z,10.98
2023-05-02T03:56:59.597Z,11.01
2023-05-02T03:59:36.493Z,11.04
2023-05-02T04:02:13.215Z,11.07
2023-05-02T04:04:49.169Z,11.12
2023-05-02T04:07:25.928Z,11.16
2023-05-02T04:10:16.380Z,11.20
2023-05-02T04:12:51.503Z,11.23
2023-05-02T04:15:24.423Z,11.27
2023-05-02T04:18:00.581Z,11.32
2023-05-02T04:20:36.280Z,11.39
2023-05-02T04:23:11.133Z,11.46
2023-05-02T04:25:54.161Z,11.51
2023-05-02T04:28:29.394Z,11.58
2023-05-02T04:31:03.322Z,11.62
2023-05-02T04:33:38.158Z,11.68
2023-05-02T04:36:13.600Z,11.74
2023-05-02T04:38:50.564Z,11.79
2023-05-02T04:41:23.289Z,11.85
2023-05-02T04:44:01.488Z,11.91
2023-05-02T04:46:33.940Z,11.97
2023-05-02T04:49:06.275Z,12.03
2023-05-02T04:51:38.742Z,12.08
2023-05-02T04:54:10.915Z,12.12
2023-05-02T04:56:43.317Z,12.17
2023-05-02T04:59:16.000Z,12.23
2023-05-02T05:01:48.459Z,12.29
2023-05-02T05:04:22.081Z,12.35
2023-05-02T05:06:56.659Z,12.43
2023-05-02T05:09:30.445Z,12.50
2023-05-02T05:12:03.233Z,12.58
2023-05-02T05:14:37.546Z,12.65
2023-05-02T05:17:09.650Z,12.72
2023-05-02T05:19:42.444Z,12.81
2023-05-02T05:22:15.629Z,12.88
2023-05-02T05:24:55.189Z,12.95
2023-05-02T05:27:31.342Z,13.04
2023-05-02T05:30:04.198Z,13.14
2023-05-02T05:32:37.025Z,13.24
2023-05-02T05:35:10.781Z,13.32
2023-05-02T05:37:43.973Z,13.39
2023-05-02T05:40:18.883Z,13.45
2023-05-02T05:42:56.156Z,13.49
2023-05-02T05:45:32.853Z,13.58
2023-05-02T05:48:05.064Z,13.67
2023-05-02T05:53:53.532Z,13.90
2023-05-02T05:56:28.487Z,13.96
2023-05-02T05:59:06.914Z,14.03
2023-05-02T06:01:39.291Z,14.13
2023-05-02T06:04:12.830Z,14.23
2023-05-02T06:06:47.576Z,14.31
2023-05-02T06:09:19.799Z,14.36
2023-05-02T06:11:53.192Z,14.42
2023-05-02T06:14:25.600Z,14.52
2023-05-02T06:17:00.013Z,14.62
2023-05-02T06:19:33.440Z,14.76
2023-05-02T06:22:05.799Z,14.88
2023-05-02T06:24:38.331Z,14.97
2023-05-02T06:27:10.822Z,15.09
2023-05-02T06:29:42.913Z,15.21
2023-05-02T06:32:18.010Z,15.35
2023-05-02T06:34:50.123Z,15.50
2023-05-02T06:37:23.030Z,15.62
2023-05-02T06:39:55.473Z,15.77
2023-05-02T06:42:28.076Z,15.92
2023-05-02T06:45:00.328Z,16.02
2023-05-02T06:47:32.702Z,16.09
2023-05-02T06:50:05.974Z,16.19
2023-05-02T06:52:38.089Z,16.35
2023-05-02T06:55:11.923Z,16.48
2023-05-02T06:57:44.652Z,16.60
2023-05-02T07:00:19.184Z,16.61
2023-05-02T07:02:52.290Z,16.72
2023-05-02T07:05:25.889Z,16.86
2023-05-02T07:07:58.217Z,16.99
2023-05-02T07:10:32.660Z,17.16
2023-05-02T07:13:04.986Z,17.36
2023-05-02T07:15:37.142Z,17.56
2023-05-02T07:18:09.388Z,17.61
2023-05-02T07:20:42.439Z,17.64
2023-05-02T07:23:14.595Z,17.84
2023-05-02T07:25:46.755Z,18.05
2023-05-02T07:28:18.966Z,18.20
2023-05-02T07:30:51.351Z,18.33
2023-05-02T07:33:23.981Z,18.46
2023-05-02T07:35:57.141Z,18.49
2023-05-02T07:38:30.704Z,18.63
2023-05-02T07:41:03.401Z,18.87
2023-05-02T07:43:36.227Z,19.07
2023-05-02T07:46:12.072Z,19.20
2023-05-02T07:48:44.201Z,19.23
2023-05-02T07:51:16.379Z,19.27
2023-05-02T07:53:48.545Z,19.36
2023-05-02T07:56:21.366Z,19.43
2023-05-02T07:58:53.950Z,19.53
2023-05-02T08:01:26.339Z,19.62
2023-05-02T08:03:58.508Z,19.63
2023-05-02T08:06:31.133Z,19.69
2023-05-02T08:09:06.653Z,19.80
2023-05-02T08:11:39.340Z,19.84
2023-05-02T08:14:11.620Z,19.93
2023-05-02T08:16:45.594Z,20.06
2023-05-02T08:19:19.052Z,20.24
2023-05-02T08:21:51.280Z,20.33
2023-05-02T08:24:23.573Z,20.32
2023-05-02T08:26:55.698Z,20.31
2023-05-02T08:29:27.873Z,20.34
2023-05-02T08:32:00.205Z,20.48
2023-05-02T08:34:33.945Z,20.64
2023-05-02T08:37:12.172Z,20.81
2023-05-02T08:39:44.189Z,20.96
2023-05-02T08:42:16.529Z,21.04
2023-05-02T08:44:49.526Z,21.10
2023-05-02T08:47:23.780Z,21.24
2023-05-02T08:50:00.633Z,21.25
2023-05-02T08:52:33.821Z,21.21
2023-05-02T08:55:07.530Z,21.33
2023-05-02T08:57:39.747Z,21.58
2023-05-02T09:00:13.593Z,21.77
2023-05-02T09:03:01.353Z,21.90
2023-05-02T09:05:40.906Z,21.90
2023-05-02T09:08:13.078Z,22.03
2023-05-02T09:10:48.447Z,22.12
2023-05-02T09:13:37.898Z,22.17
2023-05-02T09:16:11.754Z,22.24
2023-05-02T09:18:45.711Z,22.12
2023-05-02T09:21:21.213Z,22.17
2023-05-02T09:23:57.171Z,22.40
2023-05-02T09:26:32.283Z,22.57
2023-05-02T09:29:06.771Z,22.59
2023-05-02T09:34:17.109Z,22.62
2023-05-02T09:36:52.128Z,22.56
2023-05-02T09:39:26.290Z,22.47
2023-05-02T09:41:59.882Z,22.54
2023-05-02T09:44:40.131Z,22.49
2023-05-02T09:47:26.537Z,22.42
2023-05-02T09:49:58.796Z,22.40
2023-05-02T09:52:31.013Z,22.42
2023-05-02T09:55:03.319Z,22.34
2023-05-02T09:57:43.320Z,22.24
2023-05-02T10:00:19.626Z,22.16
2023-05-02T10:02:52.686Z,22.22
2023-05-02T10:05:25.377Z,22.28
2023-05-02T10:07:58.265Z,22.42
2023-05-02T10:10:34.200Z,22.64
2023-05-02T10:13:07.449Z,22.81
2023-05-02T10:15:45.044Z,22.98
2023-05-02T10:18:22.365Z,23.07
2023-05-02T10:21:01.148Z,23.23
2023-05-02T10:23:34.292Z,22.94
2023-05-02T10:26:07.131Z,22.84
2023-05-02T10:28:39.953Z,22.70
2023-05-02T10:31:14.251Z,22.48
2023-05-02T10:33:48.279Z,22.31
2023-05-02T10:36:25.240Z,22.16
2023-05-02T10:38:57.802Z,22.08
2023-05-02T10:41:33.688Z,21.99
2023-05-02T10:44:07.881Z,21.83
2023-05-02T10:46:41.862Z,21.58
2023-05-02T10:49:15.028Z,21.32
2023-05-02T10:51:47.132Z,21.18
2023-05-02T10:54:26.641Z,21.11
2023-05-02T10:57:09.419Z,20.95
2023-05-02T10:59:44.764Z,20.83
2023-05-02T11:02:43.798Z,20.83
2023-05-02T11:05:17.729Z,20.93
2023-05-02T11:07:52.276Z,20.96
2023-05-02T11:10:33.016Z,20.86
2023-05-02T11:13:06.630Z,20.84
2023-05-02T11:16:00.721Z,20.85
2023-05-02T11:19:02.192Z,20.87
2023-05-02T11:21:35.415Z,20.88
2023-05-02T11:24:44.641Z,20.92
2023-05-02T11:27:39.534Z,20.98
2023-05-02T11:30:13.821Z,21.15
2023-05-02T11:33:13.051Z,21.21
2023-05-02T11:35:47.308Z,21.16
2023-05-02T11:38:21.736Z,21.04
2023-05-02T11:41:04.261Z,20.83
2023-05-02T11:43:36.665Z,20.66
2023-05-02T11:46:09.516Z,20.46
2023-05-02T11:48:42.840Z,20.24
2023-05-02T11:51:15.015Z,20.04
2023-05-02T11:53:47.382Z,19.87
2023-05-02T11:56:26.718Z,19.75
2023-05-02T11:59:05.321Z,19.71
2023-05-02T12:01:37.483Z,19.67
2023-05-02T12:04:11.854Z,19.63
2023-05-02T12:06:57.767Z,19.66
2023-05-02T12:09:30.004Z,19.74
2023-05-02T12:12:02.824Z,19.66
2023-05-02T12:14:36.390Z,19.50
2023-05-02T12:17:08.544Z,19.37
2023-05-02T12:19:40.921Z,19.36
2023-05-02T12:22:15.455Z,19.36
2023-05-02T12:24:49.295Z,19.35
2023-05-02T12:27:21.393Z,19.34
2023-05-02T12:29:54.975Z,19.41
2023-05-02T12:32:33.069Z,19.51
2023-05-02T12:35:07.710Z,19.67
2023-05-02T12:37:39.930Z,19.85
2023-05-02T12:40:18.112Z,19.97
2023-05-02T12:43:04.306Z,20.01
2023-05-02T12:45:36.439Z,19.95
2023-05-02T12:48:25.706Z,19.91
2023-05-02T12:50:58.047Z,19.85
2023-05-02T12:53:43.854Z,19.78
2023-05-02T12:56:18.476Z,19.67
2023-05-02T12:58:53.274Z,19.59
2023-05-02T13:01:25.512Z,19.51
2023-05-02T13:03:57.633Z,19.50
2023-05-02T13:06:29.984Z,19.42
2023-05-02T13:09:02.676Z,19.39
2023-05-02T13:11:34.821Z,19.32
2023-05-02T13:14:07.024Z,19.31
2023-05-02T13:16:39.396Z,19.41
2023-05-02T13:19:12.660Z,19.44
2023-05-02T13:21:44.770Z,19.42
2023-05-02T13:24:17.601Z,19.49
2023-05-02T13:26:49.648Z,19.51
2023-05-02T13:29:21.806Z,19.45
2023-05-02T13:31:56.466Z,19.38
2023-05-02T13:34:28.803Z,19.29
2023-05-02T13:37:00.894Z,19.21
2023-05-02T13:39:33.007Z,19.16
2023-05-02T13:42:06.217Z,19.12
2023-05-02T13:44:38.508Z,19.06
2023-05-02T13:47:10.592Z,19.02
2023-05-02T13:49:42.720Z,19.00
2023-05-02T13:52:15.003Z,19.00
2023-05-02T13:54:49.555Z,19.04
2023-05-02T13:57:21.993Z,19.07
2023-05-02T13:59:54.193Z,19.07
2023-05-02T14:02:26.341Z,19.05
2023-05-02T14:04:58.593Z,19.04
2023-05-02T14:07:30.671Z,19.04
2023-05-02T14:10:05.567Z,19.01
2023-05-02T14:12:37.782Z,18.98
2023-05-02T14:15:11.908Z,18.95
2023-05-02T14:17:43.949Z,18.96
2023-05-02T14:20:16.522Z,18.99
2023-05-02T14:22:48.810Z,19.01
2023-05-02T14:25:20.930Z,19.00
2023-05-02T14:27:52.993Z,18.99
2023-05-02T14:30:25.241Z,18.99
2023-05-02T14:32:57.443Z,19.01
2023-05-02T14:35:29.746Z,18.96
2023-05-02T14:38:02.075Z,18.92
2023-05-02T14:40:34.187Z,18.85
2023-05-02T14:43:07.305Z,18.85
2023-05-02T14:45:41.846Z,18.86
2023-05-02T14:48:14.298Z,18.85
2023-05-02T14:50:49.270Z,18.85
2023-05-02T14:53:21.572Z,18.82
2023-05-02T14:55:54.247Z,18.75
2023-05-02T14:58:26.620Z,18.68
2023-05-02T15:00:59.308Z,18.65
2023-05-02T15:03:32.132Z,18.55
2023-05-02T15:06:06.955Z,18.40
2023-05-02T15:08:39.482Z,18.27
2023-05-02T15:11:11.997Z,18.18
2023-05-02T15:13:44.022Z,18.15
2023-05-02T15:16:16.150Z,18.13
2023-05-02T15:18:48.246Z,18.07
2023-05-02T15:21:20.221Z,18.01
2023-05-02T15:23:52.715Z,17.96
2023-05-02T15:26:26.105Z,17.89
2023-05-02T15:29:01.524Z,17.82
2023-05-02T15:31:34.086Z,17.78
2023-05-02T15:34:07.228Z,17.75
2023-05-02T15:36:40.740Z,17.69
2023-05-02T15:39:13.177Z,17.64
2023-05-02T15:41:47.739Z,17.65
2023-05-02T15:44:19.779Z,17.65
2023-05-02T15:46:51.829Z,17.57
2023-05-02T15:49:24.981Z,17.46
2023-05-02T15:51:57.387Z,17.40
2023-05-02T15:54:31.872Z,17.34
2023-05-02T15:57:03.895Z,17.23
2023-05-02T15:59:36.379Z,17.16
2023-05-02T16:02:08.535Z,17.14
2023-05-02T16:04:40.952Z,17.10
2023-05-02T16:07:13.983Z,17.07
2023-05-02T16:09:46.484Z,17.01
2023-05-02T16:12:18.708Z,16.96
2023-05-02T16:14:53.290Z,16.92
2023-05-02T16:17:25.806Z,16.87
2023-05-02T16:19:58.299Z,16.82
2023-05-02T16:22:30.365Z,16.81
2023-05-02T16:25:02.683Z,16.80
2023-05-02T16:27:35.820Z,16.74
2023-05-02T16:30:09.893Z,16.68
2023-05-02T16:32:42.084Z,16.65
2023-05-02T16:35:14.586Z,16.61
2023-05-02T16:37:46.868Z,16.59
2023-05-02T16:40:19.471Z,16.53
2023-05-02T16:42:51.539Z,16.49
2023-05-02T16:45:25.533Z,16.45
2023-05-02T16:47:57.909Z,16.40
2023-05-02T16:50:29.953Z,16.33
2023-05-02T16:53:02.132Z,16.24
2023-05-02T16:55:34.611Z,16.21
2023-05-02T16:58:06.678Z,16.16
2023-05-02T17:00:38.660Z,16.15
2023-05-02T17:03:11.069Z,16.13
2023-05-02T17:05:43.178Z,16.04
2023-05-02T17:08:17.059Z,15.94
2023-05-02T17:10:52.680Z,15.90
2023-05-02T17:13:24.766Z,15.87
2023-05-02T17:15:57.566Z,15.85
2023-05-02T17:18:29.699Z,15.82
2023-05-02T17:21:03.852Z,15.77
2023-05-02T17:23:36.997Z,15.75
2023-05-02T17:26:14.399Z,15.71
2023-05-02T17:28:46.684Z,15.68
2023-05-02T17:31:19.405Z,15.65
2023-05-02T17:33:52.328Z,15.62
2023-05-02T17:36:24.304Z,15.55
2023-05-02T17:38:56.376Z,15.50
2023-05-02T17:41:28.967Z,15.50
2023-05-02T17:44:01.016Z,15.51
2023-05-02T17:46:35.147Z,15.51
2023-05-02T17:49:07.851Z,15.47
2023-05-02T17:51:42.057Z,15.42
2023-05-02T17:54:14.181Z,15.34
2023-05-02T17:56:46.369Z,15.30
2023-05-02T17:59:21.997Z,15.27
2023-05-02T18:01:58.548Z,15.22
2023-05-02T18:04:31.321Z,15.15
2023-05-02T18:07:05.685Z,15.09
2023-05-02T18:09:38.217Z,15.05
2023-05-02T18:12:10.404Z,15.02
2023-05-02T18:14:43.333Z,15.02
2023-05-02T18:17:15.423Z,14.95
2023-05-02T18:19:48.954Z,14.92
2023-05-02T18:22:21.971Z,14.88
2023-05-02T18:24:54.555Z,14.84
2023-05-02T18:27:28.617Z,14.80
2023-05-02T18:30:01.822Z,14.79
2023-05-02T18:32:35.941Z,14.78
2023-05-02T18:35:11.566Z,14.76
2023-05-02T18:37:43.610Z,14.70
2023-05-02T18:40:16.176Z,14.61
2023-05-02T18:42:48.109Z,14.56
2023-05-02T18:45:21.205Z,14.53
2023-05-02T18:47:53.487Z,14.49
2023-05-02T18:50:26.698Z,14.39
2023-05-02T18:52:58.930Z,14.31
2023-05-02T18:55:32.886Z,14.24
2023-05-02T18:58:04.951Z,14.18
2023-05-02T19:00:37.786Z,14.04
2023-05-02T19:03:09.851Z,13.92
2023-05-02T19:05:43.466Z,13.86
2023-05-02T19:08:16.190Z,13.79
2023-05-02T19:10:48.259Z,13.75
2023-05-02T19:13:20.869Z,13.75
2023-05-02T19:15:52.977Z,13.78
2023-05-02T19:18:25.098Z,13.79
2023-05-02T19:20:57.363Z,13.75
2023-05-02T19:23:29.467Z,13.76
2023-05-02T19:26:02.110Z,13.70
2023-05-02T19:28:34.300Z,13.58
2023-05-02T19:31:11.522Z,13.45
2023-05-02T19:33:50.226Z,13.36
2023-05-02T19:36:23.198Z,13.30
2023-05-02T19:38:58.177Z,13.25
2023-05-02T19:41:30.979Z,13.20
2023-05-02T19:44:03.082Z,13.16
2023-05-02T19:46:35.297Z,13.17
2023-05-02T19:49:07.402Z,13.15
2023-05-02T19:51:42.253Z,13.13
2023-05-02T19:54:14.539Z,13.07
2023-05-02T19:56:48.850Z,13.07
2023-05-02T19:59:20.964Z,13.04
2023-05-02T20:01:53.075Z,12.94
2023-05-02T20:04:25.967Z,12.90
2023-05-02T20:06:58.011Z,12.87
2023-05-02T20:09:30.066Z,12.87
2023-05-02T20:12:02.184Z,12.89
2023-05-02T20:14:34.438Z,12.89
2023-05-02T20:17:06.745Z,12.84
2023-05-02T20:19:42.547Z,12.81
2023-05-02T20:25:25.315Z,12.70
2023-05-02T20:27:58.889Z,12.67
2023-05-02T20:30:31.346Z,12.67
2023-05-02T20:33:13.932Z,12.64
2023-05-02T20:35:54.113Z,12.58
2023-05-02T20:38:26.156Z,12.50
2023-05-02T20:41:01.278Z,12.46
2023-05-02T20:43:35.503Z,12.48
2023-05-02T20:46:12.943Z,12.44
2023-05-02T20:48:47.056Z,12.43
2023-05-02T20:51:35.686Z,12.43
2023-05-02T20:54:08.181Z,12.43
2023-05-02T20:56:40.445Z,12.39
2023-05-02T20:59:12.674Z,12.38
2023-05-02T21:01:44.832Z,12.40
2023-05-02T21:04:17.094Z,12.40
2023-05-02T21:06:53.282Z,12.35
2023-05-02T21:09:25.702Z,12.29
2023-05-02T21:11:57.866Z,12.25
2023-05-02T21:14:30.033Z,12.22
2023-05-02T21:17:02.958Z,12.19
2023-05-02T21:19:36.060Z,12.19
2023-05-02T21:22:08.321Z,12.21
2023-05-02T21:24:40.452Z,12.21
2023-05-02T21:27:12.707Z,12.21
2023-05-02T21:29:44.838Z,12.21
2023-05-02T21:32:17.314Z,12.16
2023-05-02T21:34:50.597Z,12.17
2023-05-02T21:37:24.971Z,12.16
2023-05-02T21:39:57.289Z,12.13
2023-05-02T21:42:29.389Z,12.12
2023-05-02T21:45:02.061Z,12.09
2023-05-02T21:47:35.108Z,12.04
2023-05-02T21:50:08.564Z,12.04
2023-05-02T21:52:40.709Z,12.08
2023-05-02T21:55:13.291Z,12.09
2023-05-02T21:57:45.432Z,12.06
2023-05-02T22:00:18.629Z,12.03
2023-05-02T22:02:51.418Z,12.04
2023-05-02T22:05:23.921Z,12.03
2023-05-02T22:07:57.198Z,12.04
2023-05-02T22:10:29.727Z,12.03
2023-05-02T22:13:01.829Z,12.04
2023-05-02T22:15:33.993Z,12.03
2023-05-02T22:18:07.083Z,12.00
2023-05-02T22:20:42.372Z,11.95
2023-05-02T22:23:15.215Z,11.91
2023-05-02T22:25:47.459Z,11.90
2023-05-02T22:28:19.549Z,11.86
2023-05-02T22:30:51.636Z,11.86
2023-05-02T22:33:23.924Z,11.82
2023-05-02T22:35:57.061Z,11.82
2023-05-02T22:38:29.147Z,11.85
2023-05-02T22:41:03.357Z,11.83
2023-05-02T22:43:35.520Z,11.78
2023-05-02T22:46:07.730Z,11.75
2023-05-02T22:48:39.859Z,11.70
2023-05-02T22:51:12.079Z,11.68
2023-05-02T22:53:44.285Z,11.69
2023-05-02T22:56:16.425Z,11.68
2023-05-02T22:58:50.103Z,11.61
2023-05-02T23:01:22.432Z,11.59
2023-05-02T23:03:54.902Z,11.58
2023-05-02T23:06:28.869Z,11.56
2023-05-02T23:09:01.170Z,11.54
2023-05-02T23:11:33.295Z,11.56
2023-05-02T23:14:05.415Z,11.55
2023-05-02T23:16:37.734Z,11.56
2023-05-02T23:19:09.870Z,11.58
2023-05-02T23:21:43.254Z,11.58
2023-05-02T23:24:15.481Z,11.58
2023-05-02T23:26:47.866Z,11.56
2023-05-02T23:29:20.086Z,11.55
2023-05-02T23:31:54.564Z,11.56
2023-05-02T23:34:29.810Z,11.57
2023-05-02T23:37:01.921Z,11.58
2023-05-02T23:39:34.280Z,11.57
2023-05-02T23:42:06.822Z,11.55
2023-05-02T23:44:39.094Z,11.56
2023-05-02T23:47:11.427Z,11.58
2023-05-02T23:49:43.849Z,11.59
2023-05-02T23:52:15.959Z,11.60
2023-05-02T23:54:50.711Z,11.63
2023-05-02T23:57:22.854Z,11.68
2023-05-02T23:59:55.005Z,11.71
